sensor_id;sensor_type;location;lat;lon;timestamp;P1;durP1;ratioP1;P2;durP2;ratioP2
21202;SDS011;10759;51.982;9.232;2023-08-08T00:02:21;3.08;;;2.65;;
21202;SDS011;10759;51.982;9.232;2023-08-08T00:04:49;4.80;;;2.92;;
21202;SDS011;10759;51.982;9.232;2023-08-08T00:07:18;4.55;;;3.97;;
21202;SDS011;10759;51.982;9.232;2023-08-08T00:09:46;4.60;;;3.65;;
21202;SDS011;10759;51.982;9.232;2023-08-08T00:12:14;5.75;;;3.80;;
21202;SDS011;10759;51.982;9.232;2023-08-08T00:14:42;4.70;;;3.33;;
21202;SDS011;10759;51.982;9.232;2023-08-08T00:17:10;4.45;;;4.05;;
21202;SDS011;10759;51.982;9.232;2023-08-08T00:19:38;7.53;;;4.10;;
21202;SDS011;10759;51.982;9.232;2023-08-08T00:22:06;4.30;;;3.45;;
21202;SDS011;10759;51.982;9.232;2023-08-08T00:24:35;4.68;;;3.63;;
21202;SDS011;10759;51.982;9.232;2023-08-08T00:27:03;5.22;;;4.15;;
21202;SDS011;10759;51.982;9.232;2023-08-08T00:29:31;4.40;;;3.50;;
21202;SDS011;10759;51.982;9.232;2023-08-08T00:31:59;5.20;;;4.63;;
21202;SDS011;10759;51.982;9.232;2023-08-08T00:34:29;4.85;;;4.15;;
21202;SDS011;10759;51.982;9.232;2023-08-08T00:36:57;5.50;;;3.95;;
21202;SDS011;10759;51.982;9.232;2023-08-08T00:39:25;7.57;;;4.20;;
21202;SDS011;10759;51.982;9.232;2023-08-08T00:41:57;5.43;;;3.95;;
21202;SDS011;10759;51.982;9.232;2023-08-08T00:44:26;5.35;;;4.32;;
21202;SDS011;10759;51.982;9.232;2023-08-08T00:46:54;4.25;;;3.85;;
21202;SDS011;10759;51.982;9.232;2023-08-08T00:49:22;6.68;;;4.00;;
21202;SDS011;10759;51.982;9.232;2023-08-08T00:51:50;4.75;;;3.85;;
21202;SDS011;10759;51.982;9.232;2023-08-08T00:54:18;4.68;;;4.28;;
21202;SDS011;10759;51.982;9.232;2023-08-08T00:56:47;6.35;;;4.85;;
21202;SDS011;10759;51.982;9.232;2023-08-08T00:59:16;6.63;;;5.35;;
21202;SDS011;10759;51.982;9.232;2023-08-08T01:01:49;6.32;;;5.43;;
21202;SDS011;10759;51.982;9.232;2023-08-08T01:04:17;8.45;;;5.03;;
21202;SDS011;10759;51.982;9.232;2023-08-08T01:06:47;5.90;;;5.25;;
21202;SDS011;10759;51.982;9.232;2023-08-08T01:09:24;5.28;;;4.10;;
21202;SDS011;10759;51.982;9.232;2023-08-08T01:11:56;5.82;;;5.28;;
21202;SDS011;10759;51.982;9.232;2023-08-08T01:14:28;6.00;;;5.38;;
21202;SDS011;10759;51.982;9.232;2023-08-08T01:16:57;6.28;;;5.65;;
21202;SDS011;10759;51.982;9.232;2023-08-08T01:19:27;6.00;;;5.40;;
21202;SDS011;10759;51.982;9.232;2023-08-08T01:21:57;6.03;;;5.43;;
21202;SDS011;10759;51.982;9.232;2023-08-08T01:24:31;5.57;;;4.78;;
21202;SDS011;10759;51.982;9.232;2023-08-08T01:27:04;5.88;;;5.18;;
21202;SDS011;10759;51.982;9.232;2023-08-08T01:32:01;5.72;;;5.22;;
21202;SDS011;10759;51.982;9.232;2023-08-08T01:34:30;6.03;;;4.97;;
21202;SDS011;10759;51.982;9.232;2023-08-08T01:36:59;7.18;;;5.88;;
21202;SDS011;10759;51.982;9.232;2023-08-08T01:39:35;8.13;;;5.70;;
21202;SDS011;10759;51.982;9.232;2023-08-08T01:42:07;6.88;;;6.22;;
21202;SDS011;10759;51.982;9.232;2023-08-08T01:44:36;6.68;;;6.18;;
21202;SDS011;10759;51.982;9.232;2023-08-08T01:47:06;8.00;;;5.57;;
21202;SDS011;10759;51.982;9.232;2023-08-08T01:49:35;6.50;;;5.88;;
21202;SDS011;10759;51.982;9.232;2023-08-08T01:52:03;6.45;;;5.65;;
21202;SDS011;10759;51.982;9.232;2023-08-08T01:54:31;6.32;;;5.80;;
21202;SDS011;10759;51.982;9.232;2023-08-08T01:57:01;9.60;;;6.30;;
21202;SDS011;10759;51.982;9.232;2023-08-08T01:59:29;5.78;;;5.28;;
21202;SDS011;10759;51.982;9.232;2023-08-08T02:01:57;8.00;;;6.00;;
21202;SDS011;10759;51.982;9.232;2023-08-08T02:04:27;8.93;;;5.90;;
21202;SDS011;10759;51.982;9.232;2023-08-08T02:06:55;5.80;;;5.28;;
21202;SDS011;10759;51.982;9.232;2023-08-08T02:09:24;6.20;;;5.60;;
21202;SDS011;10759;51.982;9.232;2023-08-08T02:11:53;6.72;;;5.30;;
21202;SDS011;10759;51.982;9.232;2023-08-08T02:14:23;6.63;;;5.43;;
21202;SDS011;10759;51.982;9.232;2023-08-08T02:16:52;8.77;;;6.45;;
21202;SDS011;10759;51.982;9.232;2023-08-08T02:19:20;6.07;;;5.28;;
21202;SDS011;10759;51.982;9.232;2023-08-08T02:21:48;7.40;;;5.90;;
21202;SDS011;10759;51.982;9.232;2023-08-08T02:24:17;7.95;;;5.32;;
21202;SDS011;10759;51.982;9.232;2023-08-08T02:26:45;7.07;;;5.00;;
21202;SDS011;10759;51.982;9.232;2023-08-08T02:29:13;5.30;;;4.90;;
21202;SDS011;10759;51.982;9.232;2023-08-08T02:31:42;7.63;;;5.85;;
21202;SDS011;10759;51.982;9.232;2023-08-08T02:34:10;6.32;;;5.72;;
21202;SDS011;10759;51.982;9.232;2023-08-08T02:36:38;7.28;;;5.38;;
21202;SDS011;10759;51.982;9.232;2023-08-08T02:39:06;5.90;;;4.95;;
21202;SDS011;10759;51.982;9.232;2023-08-08T02:41:34;4.88;;;4.45;;
21202;SDS011;10759;51.982;9.232;2023-08-08T02:44:02;5.38;;;4.65;;
21202;SDS011;10759;51.982;9.232;2023-08-08T02:46:30;4.75;;;4.05;;
21202;SDS011;10759;51.982;9.232;2023-08-08T02:48:59;5.68;;;3.90;;
21202;SDS011;10759;51.982;9.232;2023-08-08T02:51:27;4.90;;;4.50;;
21202;SDS011;10759;51.982;9.232;2023-08-08T02:53:55;5.13;;;4.20;;
21202;SDS011;10759;51.982;9.232;2023-08-08T02:56:23;6.28;;;3.95;;
21202;SDS011;10759;51.982;9.232;2023-08-08T02:58:52;5.47;;;3.45;;
21202;SDS011;10759;51.982;9.232;2023-08-08T03:01:20;3.85;;;3.55;;
21202;SDS011;10759;51.982;9.232;2023-08-08T03:03:49;3.65;;;3.35;;
21202;SDS011;10759;51.982;9.232;2023-08-08T03:06:20;5.63;;;3.47;;
21202;SDS011;10759;51.982;9.232;2023-08-08T03:08:50;3.17;;;2.88;;
21202;SDS011;10759;51.982;9.232;2023-08-08T03:11:18;4.68;;;3.53;;
21202;SDS011;10759;51.982;9.232;2023-08-08T03:13:47;7.85;;;3.30;;
21202;SDS011;10759;51.982;9.232;2023-08-08T03:16:15;4.68;;;3.00;;
21202;SDS011;10759;51.982;9.232;2023-08-08T03:18:43;8.18;;;3.60;;
21202;SDS011;10759;51.982;9.232;2023-08-08T03:21:13;3.35;;;3.05;;
21202;SDS011;10759;51.982;9.232;2023-08-08T03:23:44;3.45;;;3.10;;
21202;SDS011;10759;51.982;9.232;2023-08-08T03:26:12;4.78;;;3.08;;
21202;SDS011;10759;51.982;9.232;2023-08-08T03:28:41;3.00;;;2.70;;
21202;SDS011;10759;51.982;9.232;2023-08-08T03:31:09;3.63;;;2.65;;
21202;SDS011;10759;51.982;9.232;2023-08-08T03:33:37;3.10;;;2.80;;
21202;SDS011;10759;51.982;9.232;2023-08-08T03:36:09;4.13;;;2.60;;
21202;SDS011;10759;51.982;9.232;2023-08-08T03:38:37;4.35;;;2.70;;
21202;SDS011;10759;51.982;9.232;2023-08-08T03:41:06;3.80;;;2.55;;
21202;SDS011;10759;51.982;9.232;2023-08-08T03:43:34;3.63;;;2.83;;
21202;SDS011;10759;51.982;9.232;2023-08-08T03:46:02;3.42;;;3.13;;
21202;SDS011;10759;51.982;9.232;2023-08-08T03:48:30;3.63;;;2.88;;
21202;SDS011;10759;51.982;9.232;2023-08-08T03:50:58;3.58;;;2.42;;
21202;SDS011;10759;51.982;9.232;2023-08-08T03:53:26;3.22;;;2.47;;
21202;SDS011;10759;51.982;9.232;2023-08-08T03:55:54;3.50;;;2.67;;
21202;SDS011;10759;51.982;9.232;2023-08-08T03:58:23;3.70;;;2.58;;
21202;SDS011;10759;51.982;9.232;2023-08-08T04:00:51;3.00;;;2.72;;
21202;SDS011;10759;51.982;9.232;2023-08-08T04:03:19;2.97;;;2.67;;
21202;SDS011;10759;51.982;9.232;2023-08-08T04:05:47;4.10;;;3.40;;
21202;SDS011;10759;51.982;9.232;2023-08-08T04:08:15;4.03;;;3.60;;
21202;SDS011;10759;51.982;9.232;2023-08-08T04:10:46;6.15;;;3.70;;
21202;SDS011;10759;51.982;9.232;2023-08-08T04:13:14;2.95;;;2.75;;
21202;SDS011;10759;51.982;9.232;2023-08-08T04:15:43;3.30;;;3.00;;
21202;SDS011;10759;51.982;9.232;2023-08-08T04:18:12;4.13;;;3.45;;
21202;SDS011;10759;51.982;9.232;2023-08-08T04:20:39;4.20;;;3.80;;
21202;SDS011;10759;51.982;9.232;2023-08-08T04:23:07;5.13;;;4.20;;
21202;SDS011;10759;51.982;9.232;2023-08-08T04:25:35;5.07;;;4.18;;
21202;SDS011;10759;51.982;9.232;2023-08-08T04:28:03;4.78;;;4.45;;
21202;SDS011;10759;51.982;9.232;2023-08-08T04:30:32;4.95;;;4.45;;
21202;SDS011;10759;51.982;9.232;2023-08-08T04:33:01;5.80;;;5.30;;
21202;SDS011;10759;51.982;9.232;2023-08-08T04:35:29;5.55;;;5.03;;
21202;SDS011;10759;51.982;9.232;2023-08-08T04:37:57;7.20;;;6.00;;
21202;SDS011;10759;51.982;9.232;2023-08-08T04:40:25;8.23;;;5.78;;
21202;SDS011;10759;51.982;9.232;2023-08-08T04:42:52;6.15;;;5.35;;
21202;SDS011;10759;51.982;9.232;2023-08-08T04:45:20;6.25;;;5.75;;
21202;SDS011;10759;51.982;9.232;2023-08-08T04:47:48;6.50;;;5.90;;
21202;SDS011;10759;51.982;9.232;2023-08-08T04:50:16;6.57;;;5.88;;
21202;SDS011;10759;51.982;9.232;2023-08-08T04:52:44;9.20;;;6.37;;
21202;SDS011;10759;51.982;9.232;2023-08-08T04:55:12;6.95;;;6.35;;
21202;SDS011;10759;51.982;9.232;2023-08-08T04:57:40;7.32;;;6.57;;
21202;SDS011;10759;51.982;9.232;2023-08-08T05:00:08;8.07;;;6.80;;
21202;SDS011;10759;51.982;9.232;2023-08-08T05:02:37;7.63;;;6.47;;
21202;SDS011;10759;51.982;9.232;2023-08-08T05:05:06;6.80;;;6.20;;
21202;SDS011;10759;51.982;9.232;2023-08-08T05:07:36;6.78;;;6.18;;
21202;SDS011;10759;51.982;9.232;2023-08-08T05:10:04;7.07;;;6.50;;
21202;SDS011;10759;51.982;9.232;2023-08-08T05:12:33;7.00;;;6.40;;
21202;SDS011;10759;51.982;9.232;2023-08-08T05:15:01;9.90;;;6.20;;
21202;SDS011;10759;51.982;9.232;2023-08-08T05:17:29;6.70;;;6.05;;
21202;SDS011;10759;51.982;9.232;2023-08-08T05:19:58;6.88;;;6.22;;
21202;SDS011;10759;51.982;9.232;2023-08-08T05:22:26;6.45;;;5.82;;
21202;SDS011;10759;51.982;9.232;2023-08-08T05:24:55;7.25;;;6.57;;
21202;SDS011;10759;51.982;9.232;2023-08-08T05:27:23;7.78;;;7.18;;
21202;SDS011;10759;51.982;9.232;2023-08-08T05:29:51;8.02;;;7.25;;
21202;SDS011;10759;51.982;9.232;2023-08-08T05:32:18;7.57;;;6.97;;
21202;SDS011;10759;51.982;9.232;2023-08-08T05:34:46;10.10;;;9.13;;
21202;SDS011;10759;51.982;9.232;2023-08-08T05:37:15;8.75;;;8.05;;
21202;SDS011;10759;51.982;9.232;2023-08-08T05:39:43;9.73;;;8.93;;
21202;SDS011;10759;51.982;9.232;2023-08-08T05:42:13;11.80;;;10.50;;
21202;SDS011;10759;51.982;9.232;2023-08-08T05:44:40;11.98;;;10.77;;
21202;SDS011;10759;51.982;9.232;2023-08-08T05:47:09;12.60;;;10.23;;
21202;SDS011;10759;51.982;9.232;2023-08-08T05:49:37;12.23;;;10.50;;
21202;SDS011;10759;51.982;9.232;2023-08-08T05:52:08;10.18;;;9.27;;
21202;SDS011;10759;51.982;9.232;2023-08-08T05:54:36;11.68;;;10.68;;
21202;SDS011;10759;51.982;9.232;2023-08-08T05:57:04;12.18;;;11.07;;
21202;SDS011;10759;51.982;9.232;2023-08-08T05:59:34;10.80;;;9.90;;
21202;SDS011;10759;51.982;9.232;2023-08-08T06:02:02;10.95;;;9.98;;
21202;SDS011;10759;51.982;9.232;2023-08-08T06:04:30;11.10;;;10.20;;
21202;SDS011;10759;51.982;9.232;2023-08-08T06:06:58;12.18;;;10.98;;
21202;SDS011;10759;51.982;9.232;2023-08-08T06:09:26;14.15;;;12.85;;
21202;SDS011;10759;51.982;9.232;2023-08-08T06:11:54;13.73;;;12.52;;
21202;SDS011;10759;51.982;9.232;2023-08-08T06:14:22;14.07;;;12.95;;
21202;SDS011;10759;51.982;9.232;2023-08-08T06:16:51;14.38;;;13.02;;
21202;SDS011;10759;51.982;9.232;2023-08-08T06:19:19;14.48;;;13.20;;
21202;SDS011;10759;51.982;9.232;2023-08-08T06:21:46;14.75;;;13.50;;
21202;SDS011;10759;51.982;9.232;2023-08-08T06:24:15;13.98;;;12.88;;
21202;SDS011;10759;51.982;9.232;2023-08-08T06:26:43;13.68;;;12.48;;
21202;SDS011;10759;51.982;9.232;2023-08-08T06:29:11;14.25;;;13.00;;
21202;SDS011;10759;51.982;9.232;2023-08-08T06:31:40;13.45;;;11.52;;
21202;SDS011;10759;51.982;9.232;2023-08-08T06:34:10;12.52;;;11.43;;
21202;SDS011;10759;51.982;9.232;2023-08-08T06:36:38;8.35;;;7.75;;
21202;SDS011;10759;51.982;9.232;2023-08-08T06:39:05;11.73;;;10.57;;
21202;SDS011;10759;51.982;9.232;2023-08-08T06:41:33;10.77;;;9.75;;
21202;SDS011;10759;51.982;9.232;2023-08-08T06:44:01;10.63;;;9.65;;
21202;SDS011;10759;51.982;9.232;2023-08-08T06:46:29;10.07;;;9.05;;
21202;SDS011;10759;51.982;9.232;2023-08-08T06:48:57;9.75;;;8.93;;
21202;SDS011;10759;51.982;9.232;2023-08-08T06:51:27;9.48;;;8.63;;
21202;SDS011;10759;51.982;9.232;2023-08-08T06:53:55;9.88;;;8.90;;
21202;SDS011;10759;51.982;9.232;2023-08-08T06:56:23;12.15;;;8.75;;
21202;SDS011;10759;51.982;9.232;2023-08-08T06:58:52;10.45;;;9.40;;
21202;SDS011;10759;51.982;9.232;2023-08-08T07:01:20;10.75;;;9.85;;
21202;SDS011;10759;51.982;9.232;2023-08-08T07:03:48;9.15;;;8.55;;
21202;SDS011;10759;51.982;9.232;2023-08-08T07:06:17;9.05;;;8.35;;
21202;SDS011;10759;51.982;9.232;2023-08-08T07:08:47;11.53;;;8.60;;
21202;SDS011;10759;51.982;9.232;2023-08-08T07:11:15;8.43;;;7.65;;
21202;SDS011;10759;51.982;9.232;2023-08-08T07:13:42;8.52;;;7.82;;
21202;SDS011;10759;51.982;9.232;2023-08-08T07:16:10;9.27;;;8.05;;
21202;SDS011;10759;51.982;9.232;2023-08-08T07:18:38;8.00;;;7.30;;
21202;SDS011;10759;51.982;9.232;2023-08-08T07:21:06;7.07;;;6.50;;
21202;SDS011;10759;51.982;9.232;2023-08-08T07:23:34;7.18;;;6.47;;
21202;SDS011;10759;51.982;9.232;2023-08-08T07:26:03;8.00;;;7.25;;
21202;SDS011;10759;51.982;9.232;2023-08-08T07:28:31;7.60;;;6.03;;
21202;SDS011;10759;51.982;9.232;2023-08-08T07:30:59;7.72;;;6.32;;
21202;SDS011;10759;51.982;9.232;2023-08-08T07:33:27;7.43;;;6.13;;
21202;SDS011;10759;51.982;9.232;2023-08-08T07:35:55;6.70;;;5.53;;
21202;SDS011;10759;51.982;9.232;2023-08-08T07:38:23;6.63;;;6.03;;
21202;SDS011;10759;51.982;9.232;2023-08-08T07:40:50;7.60;;;6.47;;
21202;SDS011;10759;51.982;9.232;2023-08-08T07:43:20;7.95;;;6.13;;
21202;SDS011;10759;51.982;9.232;2023-08-08T07:45:48;7.63;;;6.37;;
21202;SDS011;10759;51.982;9.232;2023-08-08T07:48:15;7.43;;;6.72;;
21202;SDS011;10759;51.982;9.232;2023-08-08T07:50:43;7.30;;;6.70;;
21202;SDS011;10759;51.982;9.232;2023-08-08T07:53:11;7.90;;;7.22;;
21202;SDS011;10759;51.982;9.232;2023-08-08T07:55:39;7.80;;;7.03;;
21202;SDS011;10759;51.982;9.232;2023-08-08T07:58:07;9.27;;;7.65;;
21202;SDS011;10759;51.982;9.232;2023-08-08T08:00:36;10.40;;;7.72;;
21202;SDS011;10759;51.982;9.232;2023-08-08T08:03:05;7.80;;;7.10;;
21202;SDS011;10759;51.982;9.232;2023-08-08T08:05:33;7.95;;;7.15;;
21202;SDS011;10759;51.982;9.232;2023-08-08T08:08:01;9.20;;;6.63;;
21202;SDS011;10759;51.982;9.232;2023-08-08T08:10:29;7.93;;;7.13;;
21202;SDS011;10759;51.982;9.232;2023-08-08T08:12:57;9.13;;;7.30;;
21202;SDS011;10759;51.982;9.232;2023-08-08T08:15:25;9.40;;;7.35;;
21202;SDS011;10759;51.982;9.232;2023-08-08T08:17:55;7.40;;;6.68;;
21202;SDS011;10759;51.982;9.232;2023-08-08T08:20:23;11.85;;;7.30;;
21202;SDS011;10759;51.982;9.232;2023-08-08T08:22:51;9.82;;;7.05;;
21202;SDS011;10759;51.982;9.232;2023-08-08T08:25:19;12.02;;;6.43;;
21202;SDS011;10759;51.982;9.232;2023-08-08T08:27:47;7.97;;;6.78;;
21202;SDS011;10759;51.982;9.232;2023-08-08T08:30:15;9.18;;;7.22;;
21202;SDS011;10759;51.982;9.232;2023-08-08T08:32:44;9.05;;;6.90;;
21202;SDS011;10759;51.982;9.232;2023-08-08T08:35:13;7.75;;;7.00;;
21202;SDS011;10759;51.982;9.232;2023-08-08T08:37:43;7.85;;;7.00;;
21202;SDS011;10759;51.982;9.232;2023-08-08T08:40:11;7.65;;;6.95;;
21202;SDS011;10759;51.982;9.232;2023-08-08T08:42:39;8.38;;;7.28;;
21202;SDS011;10759;51.982;9.232;2023-08-08T08:45:08;7.45;;;6.72;;
21202;SDS011;10759;51.982;9.232;2023-08-08T08:47:36;8.25;;;7.50;;
21202;SDS011;10759;51.982;9.232;2023-08-08T08:50:08;10.75;;;7.32;;
21202;SDS011;10759;51.982;9.232;2023-08-08T08:52:37;10.32;;;7.97;;
21202;SDS011;10759;51.982;9.232;2023-08-08T08:55:06;9.90;;;7.78;;
21202;SDS011;10759;51.982;9.232;2023-08-08T08:57:35;8.60;;;7.75;;
21202;SDS011;10759;51.982;9.232;2023-08-08T09:00:03;13.00;;;7.53;;
21202;SDS011;10759;51.982;9.232;2023-08-08T09:02:33;8.25;;;7.20;;
21202;SDS011;10759;51.982;9.232;2023-08-08T09:05:01;7.75;;;6.90;;
21202;SDS011;10759;51.982;9.232;2023-08-08T09:07:31;7.95;;;7.15;;
21202;SDS011;10759;51.982;9.232;2023-08-08T09:10:01;9.13;;;6.97;;
21202;SDS011;10759;51.982;9.232;2023-08-08T09:12:30;9.90;;;7.47;;
21202;SDS011;10759;51.982;9.232;2023-08-08T09:14:58;10.30;;;6.95;;
21202;SDS011;10759;51.982;9.232;2023-08-08T09:17:27;8.60;;;7.20;;
21202;SDS011;10759;51.982;9.232;2023-08-08T09:20:12;8.38;;;7.15;;
21202;SDS011;10759;51.982;9.232;2023-08-08T09:22:40;8.32;;;6.93;;
21202;SDS011;10759;51.982;9.232;2023-08-08T09:25:09;9.48;;;7.53;;
21202;SDS011;10759;51.982;9.232;2023-08-08T09:27:37;11.02;;;6.70;;
21202;SDS011;10759;51.982;9.232;2023-08-08T09:30:06;9.30;;;6.50;;
21202;SDS011;10759;51.982;9.232;2023-08-08T09:32:36;8.23;;;6.07;;
21202;SDS011;10759;51.982;9.232;2023-08-08T09:35:04;8.85;;;6.15;;
21202;SDS011;10759;51.982;9.232;2023-08-08T09:37:36;6.47;;;5.60;;
21202;SDS011;10759;51.982;9.232;2023-08-08T09:40:05;7.55;;;6.32;;
21202;SDS011;10759;51.982;9.232;2023-08-08T09:42:36;10.02;;;6.78;;
21202;SDS011;10759;51.982;9.232;2023-08-08T09:45:04;10.77;;;6.37;;
21202;SDS011;10759;51.982;9.232;2023-08-08T09:47:33;8.05;;;6.35;;
21202;SDS011;10759;51.982;9.232;2023-08-08T09:50:01;8.43;;;7.00;;
21202;SDS011;10759;51.982;9.232;2023-08-08T09:52:32;6.63;;;6.03;;
21202;SDS011;10759;51.982;9.232;2023-08-08T09:55:01;13.82;;;8.23;;
21202;SDS011;10759;51.982;9.232;2023-08-08T09:57:30;10.38;;;8.10;;
21202;SDS011;10759;51.982;9.232;2023-08-08T10:00:00;9.40;;;8.13;;
21202;SDS011;10759;51.982;9.232;2023-08-08T10:02:31;11.55;;;7.50;;
21202;SDS011;10759;51.982;9.232;2023-08-08T10:05:03;8.30;;;7.30;;
21202;SDS011;10759;51.982;9.232;2023-08-08T10:07:31;7.97;;;7.13;;
21202;SDS011;10759;51.982;9.232;2023-08-08T10:09:59;10.85;;;7.38;;
21202;SDS011;10759;51.982;9.232;2023-08-08T10:12:27;8.25;;;7.10;;
21202;SDS011;10759;51.982;9.232;2023-08-08T10:14:55;7.68;;;6.18;;
21202;SDS011;10759;51.982;9.232;2023-08-08T10:17:25;6.90;;;6.18;;
21202;SDS011;10759;51.982;9.232;2023-08-08T10:19:54;7.20;;;5.97;;
21202;SDS011;10759;51.982;9.232;2023-08-08T10:22:23;6.53;;;5.82;;
21202;SDS011;10759;51.982;9.232;2023-08-08T10:24:52;9.73;;;6.00;;
21202;SDS011;10759;51.982;9.232;2023-08-08T10:27:27;7.70;;;5.03;;
21202;SDS011;10759;51.982;9.232;2023-08-08T10:30:00;6.90;;;5.40;;
21202;SDS011;10759;51.982;9.232;2023-08-08T10:32:38;6.03;;;4.60;;
21202;SDS011;10759;51.982;9.232;2023-08-08T10:35:08;6.47;;;4.53;;
21202;SDS011;10759;51.982;9.232;2023-08-08T10:37:37;8.97;;;4.90;;
21202;SDS011;10759;51.982;9.232;2023-08-08T10:40:06;6.72;;;4.93;;
21202;SDS011;10759;51.982;9.232;2023-08-08T10:42:41;5.05;;;4.10;;
21202;SDS011;10759;51.982;9.232;2023-08-08T10:45:10;5.63;;;4.72;;
21202;SDS011;10759;51.982;9.232;2023-08-08T10:50:10;8.20;;;4.78;;
21202;SDS011;10759;51.982;9.232;2023-08-08T10:52:49;6.15;;;4.53;;
21202;SDS011;10759;51.982;9.232;2023-08-08T10:55:19;7.47;;;4.70;;
21202;SDS011;10759;51.982;9.232;2023-08-08T10:57:57;8.95;;;5.28;;
21202;SDS011;10759;51.982;9.232;2023-08-08T11:00:28;4.47;;;4.18;;
21202;SDS011;10759;51.982;9.232;2023-08-08T11:02:59;5.38;;;3.80;;
21202;SDS011;10759;51.982;9.232;2023-08-08T11:05:28;4.35;;;3.92;;
21202;SDS011;10759;51.982;9.232;2023-08-08T11:07:57;7.57;;;3.63;;
21202;SDS011;10759;51.982;9.232;2023-08-08T11:10:26;7.88;;;3.78;;
21202;SDS011;10759;51.982;9.232;2023-08-08T11:12:58;4.50;;;3.20;;
21202;SDS011;10759;51.982;9.232;2023-08-08T11:15:27;5.60;;;2.70;;
21202;SDS011;10759;51.982;9.232;2023-08-08T11:17:55;3.80;;;2.00;;
21202;SDS011;10759;51.982;9.232;2023-08-08T11:20:28;7.55;;;2.38;;
21202;SDS011;10759;51.982;9.232;2023-08-08T11:22:57;3.38;;;2.20;;
21202;SDS011;10759;51.982;9.232;2023-08-08T11:25:26;2.83;;;2.17;;
21202;SDS011;10759;51.982;9.232;2023-08-08T11:27:56;2.90;;;1.90;;
21202;SDS011;10759;51.982;9.232;2023-08-08T11:38:33;2.88;;;2.03;;
21202;SDS011;10759;51.982;9.232;2023-08-08T11:41:01;2.57;;;2.20;;
21202;SDS011;10759;51.982;9.232;2023-08-08T11:43:29;5.00;;;2.45;;
21202;SDS011;10759;51.982;9.232;2023-08-08T11:45:59;3.83;;;2.28;;
21202;SDS011;10759;51.982;9.232;2023-08-08T11:48:27;4.30;;;2.92;;
21202;SDS011;10759;51.982;9.232;2023-08-08T11:50:55;5.13;;;2.30;;
21202;SDS011;10759;51.982;9.232;2023-08-08T11:53:23;2.70;;;2.20;;
21202;SDS011;10759;51.982;9.232;2023-08-08T11:55:52;4.78;;;2.00;;
21202;SDS011;10759;51.982;9.232;2023-08-08T11:58:20;3.20;;;1.85;;
21202;SDS011;10759;51.982;9.232;2023-08-08T12:00:51;2.35;;;1.85;;
21202;SDS011;10759;51.982;9.232;2023-08-08T12:03:20;2.67;;;1.47;;
21202;SDS011;10759;51.982;9.232;2023-08-08T12:05:49;4.55;;;1.70;;
21202;SDS011;10759;51.982;9.232;2023-08-08T12:08:17;3.38;;;1.70;;
21202;SDS011;10759;51.982;9.232;2023-08-08T12:10:49;4.63;;;1.95;;
21202;SDS011;10759;51.982;9.232;2023-08-08T12:13:21;3.35;;;1.83;;
21202;SDS011;10759;51.982;9.232;2023-08-08T12:15:52;2.47;;;1.92;;
21202;SDS011;10759;51.982;9.232;2023-08-08T12:18:22;6.70;;;2.13;;
21202;SDS011;10759;51.982;9.232;2023-08-08T12:20:50;3.78;;;1.67;;
21202;SDS011;10759;51.982;9.232;2023-08-08T12:23:17;2.88;;;1.80;;
21202;SDS011;10759;51.982;9.232;2023-08-08T12:25:45;4.40;;;2.00;;
21202;SDS011;10759;51.982;9.232;2023-08-08T12:28:13;2.08;;;1.50;;
21202;SDS011;10759;51.982;9.232;2023-08-08T12:30:43;3.38;;;1.50;;
21202;SDS011;10759;51.982;9.232;2023-08-08T12:33:11;2.22;;;1.23;;
21202;SDS011;10759;51.982;9.232;2023-08-08T12:35:38;3.63;;;1.20;;
21202;SDS011;10759;51.982;9.232;2023-08-08T12:38:06;2.83;;;1.73;;
21202;SDS011;10759;51.982;9.232;2023-08-08T12:40:35;2.45;;;1.52;;
21202;SDS011;10759;51.982;9.232;2023-08-08T12:43:03;2.75;;;1.40;;
21202;SDS011;10759;51.982;9.232;2023-08-08T12:45:31;3.10;;;1.23;;
21202;SDS011;10759;51.982;9.232;2023-08-08T12:48:00;3.75;;;1.45;;
21202;SDS011;10759;51.982;9.232;2023-08-08T12:50:28;3.57;;;1.30;;
21202;SDS011;10759;51.982;9.232;2023-08-08T12:52:56;1.73;;;1.23;;
21202;SDS011;10759;51.982;9.232;2023-08-08T12:55:24;3.65;;;1.17;;
21202;SDS011;10759;51.982;9.232;2023-08-08T12:57:52;2.03;;;1.30;;
21202;SDS011;10759;51.982;9.232;2023-08-08T13:00:20;4.18;;;1.20;;
21202;SDS011;10759;51.982;9.232;2023-08-08T13:02:49;2.03;;;1.10;;
21202;SDS011;10759;51.982;9.232;2023-08-08T13:05:19;2.50;;;1.15;;
21202;SDS011;10759;51.982;9.232;2023-08-08T13:07:47;2.95;;;1.48;;
21202;SDS011;10759;51.982;9.232;2023-08-08T13:10:15;2.75;;;1.40;;
21202;SDS011;10759;51.982;9.232;2023-08-08T13:12:45;2.33;;;1.48;;
21202;SDS011;10759;51.982;9.232;2023-08-08T13:15:13;2.30;;;1.50;;
21202;SDS011;10759;51.982;9.232;2023-08-08T13:17:43;2.50;;;1.50;;
21202;SDS011;10759;51.982;9.232;2023-08-08T13:20:11;3.35;;;1.50;;
21202;SDS011;10759;51.982;9.232;2023-08-08T13:22:41;2.97;;;1.40;;
21202;SDS011;10759;51.982;9.232;2023-08-08T13:25:09;3.00;;;1.40;;
21202;SDS011;10759;51.982;9.232;2023-08-08T13:27:37;1.85;;;1.10;;
21202;SDS011;10759;51.982;9.232;2023-08-08T13:30:05;2.33;;;1.38;;
21202;SDS011;10759;51.982;9.232;2023-08-08T13:32:34;1.35;;;1.10;;
21202;SDS011;10759;51.982;9.232;2023-08-08T13:35:02;1.45;;;0.98;;
21202;SDS011;10759;51.982;9.232;2023-08-08T13:37:31;2.05;;;1.17;;
21202;SDS011;10759;51.982;9.232;2023-08-08T13:40:00;2.38;;;1.33;;
21202;SDS011;10759;51.982;9.232;2023-08-08T13:42:28;2.08;;;1.05;;
21202;SDS011;10759;51.982;9.232;2023-08-08T13:44:56;1.95;;;0.90;;
21202;SDS011;10759;51.982;9.232;2023-08-08T13:47:23;1.48;;;1.10;;
21202;SDS011;10759;51.982;9.232;2023-08-08T13:49:51;1.38;;;1.20;;
21202;SDS011;10759;51.982;9.232;2023-08-08T13:52:19;2.42;;;1.10;;
21202;SDS011;10759;51.982;9.232;2023-08-08T13:54:47;2.97;;;1.33;;
21202;SDS011;10759;51.982;9.232;2023-08-08T13:57:16;3.58;;;1.27;;
21202;SDS011;10759;51.982;9.232;2023-08-08T13:59:44;2.73;;;1.70;;
21202;SDS011;10759;51.982;9.232;2023-08-08T14:02:12;4.32;;;1.60;;
21202;SDS011;10759;51.982;9.232;2023-08-08T14:04:40;4.90;;;1.88;;
21202;SDS011;10759;51.982;9.232;2023-08-08T14:07:08;4.22;;;2.50;;
21202;SDS011;10759;51.982;9.232;2023-08-08T14:09:36;4.85;;;1.80;;
21202;SDS011;10759;51.982;9.232;2023-08-08T14:12:04;3.08;;;1.42;;
21202;SDS011;10759;51.982;9.232;2023-08-08T14:14:34;4.45;;;1.50;;
21202;SDS011;10759;51.982;9.232;2023-08-08T14:17:02;4.68;;;0.98;;
21202;SDS011;10759;51.982;9.232;2023-08-08T14:19:30;1.95;;;1.20;;
21202;SDS011;10759;51.982;9.232;2023-08-08T14:21:58;1.27;;;1.00;;
21202;SDS011;10759;51.982;9.232;2023-08-08T14:24:26;2.20;;;1.17;;
21202;SDS011;10759;51.982;9.232;2023-08-08T14:26:54;4.38;;;1.00;;
21202;SDS011;10759;51.982;9.232;2023-08-08T14:29:22;1.73;;;1.00;;
21202;SDS011;10759;51.982;9.232;2023-08-08T14:31:51;1.40;;;1.00;;
21202;SDS011;10759;51.982;9.232;2023-08-08T14:34:30;1.52;;;1.08;;
21202;SDS011;10759;51.982;9.232;2023-08-08T14:36:58;3.05;;;1.70;;
21202;SDS011;10759;51.982;9.232;2023-08-08T14:39:27;2.50;;;1.02;;
21202;SDS011;10759;51.982;9.232;2023-08-08T14:41:55;1.42;;;1.30;;
21202;SDS011;10759;51.982;9.232;2023-08-08T14:44:24;1.92;;;1.35;;
21202;SDS011;10759;51.982;9.232;2023-08-08T14:46:54;3.80;;;1.55;;
21202;SDS011;10759;51.982;9.232;2023-08-08T14:49:22;4.68;;;1.38;;
21202;SDS011;10759;51.982;9.232;2023-08-08T14:51:52;2.38;;;1.77;;
21202;SDS011;10759;51.982;9.232;2023-08-08T14:54:20;1.85;;;1.30;;
21202;SDS011;10759;51.982;9.232;2023-08-08T14:56:48;14.90;;;2.30;;
21202;SDS011;10759;51.982;9.232;2023-08-08T14:59:16;1.70;;;1.42;;
21202;SDS011;10759;51.982;9.232;2023-08-08T15:01:44;2.28;;;1.38;;
21202;SDS011;10759;51.982;9.232;2023-08-08T15:04:14;11.50;;;1.38;;
21202;SDS011;10759;51.982;9.232;2023-08-08T15:06:42;2.30;;;1.10;;
21202;SDS011;10759;51.982;9.232;2023-08-08T15:09:10;1.60;;;1.35;;